sensor_id;sensor_type;location;lat;lon;timestamp;pressure;altitude;pressure_sealevel;temperature;humidity
82395;BME280;72031;51.786;4.662;2024-02-14T00:01:47;101366.53;;;8.95;96.21
82395;BME280;72031;51.786;4.662;2024-02-14T00:04:12;101364.47;;;9.00;95.72
82395;BME280;72031;51.786;4.662;2024-02-14T00:06:39;101359.84;;;9.03;95.46
82395;BME280;72031;51.786;4.662;2024-02-14T00:09:05;101356.41;;;9.01;95.98
82395;BME280;72031;51.786;4.662;2024-02-14T00:11:32;101352.69;;;9.04;95.75
82395;BME280;72031;51.786;4.662;2024-02-14T00:13:57;101351.16;;;9.16;95.33
82395;BME280;72031;51.786;4.662;2024-02-14T00:16:24;101347.38;;;9.20;95.04
82395;BME280;72031;51.786;4.662;2024-02-14T00:18:50;101355.72;;;9.14;95.35
82395;BME280;72031;51.786;4.662;2024-02-14T00:21:16;101349.72;;;9.26;94.39
82395;BME280;72031;51.786;4.662;2024-02-14T00:23:41;101339.41;;;9.20;95.11
82395;BME280;72031;51.786;4.662;2024-02-14T00:26:08;101349.88;;;9.23;94.66
82395;BME280;72031;51.786;4.662;2024-02-14T00:28:35;101345.50;;;9.22;95.50
82395;BME280;72031;51.786;4.662;2024-02-14T00:31:01;101344.03;;;9.32;94.75
82395;BME280;72031;51.786;4.662;2024-02-14T00:33:26;101339.72;;;9.29;94.73
82395;BME280;72031;51.786;4.662;2024-02-14T00:35:51;101343.69;;;9.38;94.77
82395;BME280;72031;51.786;4.662;2024-02-14T00:38:17;101336.97;;;9.31;94.74
82395;BME280;72031;51.786;4.662;2024-02-14T00:40:43;101344.19;;;9.45;94.90
82395;BME280;72031;51.786;4.662;2024-02-14T00:43:08;101348.25;;;9.36;94.96
82395;BME280;72031;51.786;4.662;2024-02-14T00:45:33;101347.09;;;9.40;94.89
82395;BME280;72031;51.786;4.662;2024-02-14T00:48:01;101345.50;;;9.38;95.35
82395;BME280;72031;51.786;4.662;2024-02-14T00:50:26;101359.84;;;9.35;95.48
82395;BME280;72031;51.786;4.662;2024-02-14T00:52:52;101353.72;;;9.33;95.16
82395;BME280;72031;51.786;4.662;2024-02-14T00:55:17;101351.25;;;9.30;94.98
82395;BME280;72031;51.786;4.662;2024-02-14T00:57:43;101338.16;;;9.41;94.79
82395;BME280;72031;51.786;4.662;2024-02-14T01:00:08;101355.97;;;9.41;95.31
82395;BME280;72031;51.786;4.662;2024-02-14T01:02:34;101341.44;;;9.46;94.72
82395;BME280;72031;51.786;4.662;2024-02-14T01:04:59;101357.59;;;9.43;95.07
82395;BME280;72031;51.786;4.662;2024-02-14T01:07:25;101362.94;;;9.43;95.64
82395;BME280;72031;51.786;4.662;2024-02-14T01:09:51;101354.75;;;9.46;94.69
82395;BME280;72031;51.786;4.662;2024-02-14T01:12:17;101358.09;;;9.50;94.87
82395;BME280;72031;51.786;4.662;2024-02-14T01:14:43;101354.00;;;9.44;94.47
82395;BME280;72031;51.786;4.662;2024-02-14T01:17:09;101351.91;;;9.49;95.00
82395;BME280;72031;51.786;4.662;2024-02-14T01:19:35;101353.72;;;9.49;95.63
82395;BME280;72031;51.786;4.662;2024-02-14T01:22:00;101351.75;;;9.52;95.09
82395;BME280;72031;51.786;4.662;2024-02-14T01:24:26;101360.84;;;9.48;95.02
82395;BME280;72031;51.786;4.662;2024-02-14T01:26:53;101369.13;;;9.44;95.22
82395;BME280;72031;51.786;4.662;2024-02-14T01:29:20;101368.16;;;9.45;94.88
82395;BME280;72031;51.786;4.662;2024-02-14T01:31:45;101369.69;;;9.33;95.65
82395;BME280;72031;51.786;4.662;2024-02-14T01:34:11;101368.94;;;9.31;95.77
82395;BME280;72031;51.786;4.662;2024-02-14T01:36:36;101371.59;;;9.31;95.84
82395;BME280;72031;51.786;4.662;2024-02-14T01:39:04;101369.03;;;9.29;96.33
82395;BME280;72031;51.786;4.662;2024-02-14T01:41:33;101359.00;;;9.35;96.42
82395;BME280;72031;51.786;4.662;2024-02-14T01:43:58;101370.75;;;9.30;96.10
82395;BME280;72031;51.786;4.662;2024-02-14T01:46:25;101360.72;;;9.36;95.54
82395;BME280;72031;51.786;4.662;2024-02-14T01:48:51;101363.09;;;9.40;96.17
82395;BME280;72031;51.786;4.662;2024-02-14T01:51:21;101372.47;;;9.31;96.55
82395;BME280;72031;51.786;4.662;2024-02-14T01:53:50;101365.41;;;9.30;96.30
82395;BME280;72031;51.786;4.662;2024-02-14T01:56:16;101374.19;;;9.32;97.11
82395;BME280;72031;51.786;4.662;2024-02-14T01:58:42;101361.91;;;9.30;97.09
82395;BME280;72031;51.786;4.662;2024-02-14T02:01:08;101363.03;;;9.26;97.62
82395;BME280;72031;51.786;4.662;2024-02-14T02:03:35;101367.41;;;9.27;97.52
82395;BME280;72031;51.786;4.662;2024-02-14T02:06:04;101372.56;;;9.30;98.00
82395;BME280;72031;51.786;4.662;2024-02-14T02:08:30;101374.44;;;9.28;97.97
82395;BME280;72031;51.786;4.662;2024-02-14T02:10:57;101363.63;;;9.31;97.78
82395;BME280;72031;51.786;4.662;2024-02-14T02:13:23;101382.53;;;9.26;98.06
82395;BME280;72031;51.786;4.662;2024-02-14T02:15:49;101364.03;;;9.23;98.66
82395;BME280;72031;51.786;4.662;2024-02-14T02:18:14;101372.66;;;9.28;98.21
82395;BME280;72031;51.786;4.662;2024-02-14T02:20:40;101383.63;;;9.38;97.86
82395;BME280;72031;51.786;4.662;2024-02-14T02:23:08;101387.59;;;9.31;97.83
82395;BME280;72031;51.786;4.662;2024-02-14T02:25:34;101378.50;;;9.35;98.17
82395;BME280;72031;51.786;4.662;2024-02-14T02:28:00;101380.03;;;9.39;97.66
82395;BME280;72031;51.786;4.662;2024-02-14T02:30:25;101375.56;;;9.40;97.46
82395;BME280;72031;51.786;4.662;2024-02-14T02:32:51;101380.97;;;9.38;97.60
82395;BME280;72031;51.786;4.662;2024-02-14T02:35:17;101384.25;;;9.43;97.75
82395;BME280;72031;51.786;4.662;2024-02-14T02:37:45;101385.69;;;9.49;97.62
82395;BME280;72031;51.786;4.662;2024-02-14T02:40:13;101386.38;;;9.52;97.18
82395;BME280;72031;51.786;4.662;2024-02-14T02:42:40;101378.41;;;9.52;97.60
82395;BME280;72031;51.786;4.662;2024-02-14T02:45:06;101391.81;;;9.51;97.39
82395;BME280;72031;51.786;4.662;2024-02-14T02:47:32;101391.63;;;9.54;97.28
82395;BME280;72031;51.786;4.662;2024-02-14T02:49:57;101384.41;;;9.56;97.66
82395;BME280;72031;51.786;4.662;2024-02-14T02:52:25;101389.91;;;9.53;97.61
82395;BME280;72031;51.786;4.662;2024-02-14T02:54:51;101389.38;;;9.62;97.59
82395;BME280;72031;51.786;4.662;2024-02-14T02:57:17;101394.03;;;9.58;97.29
82395;BME280;72031;51.786;4.662;2024-02-14T02:59:43;101395.75;;;9.59;97.58
82395;BME280;72031;51.786;4.662;2024-02-14T03:02:10;101400.13;;;9.61;97.13
82395;BME280;72031;51.786;4.662;2024-02-14T03:04:38;101398.06;;;9.66;97.23
82395;BME280;72031;51.786;4.662;2024-02-14T03:07:03;101396.34;;;9.65;97.15
82395;BME280;72031;51.786;4.662;2024-02-14T03:09:32;101400.03;;;9.78;97.03
82395;BME280;72031;51.786;4.662;2024-02-14T03:11:58;101399.28;;;9.76;97.15
82395;BME280;72031;51.786;4.662;2024-02-14T03:14:23;101407.25;;;9.76;96.82
82395;BME280;72031;51.786;4.662;2024-02-14T03:16:49;101407.50;;;9.71;97.13
82395;BME280;72031;51.786;4.662;2024-02-14T03:19:14;101404.19;;;9.68;97.33
82395;BME280;72031;51.786;4.662;2024-02-14T03:21:40;101407.41;;;9.73;96.88
82395;BME280;72031;51.786;4.662;2024-02-14T03:24:05;101404.50;;;9.77;96.57
82395;BME280;72031;51.786;4.662;2024-02-14T03:26:36;101417.94;;;9.76;97.03
82395;BME280;72031;51.786;4.662;2024-02-14T03:29:03;101418.09;;;9.73;96.94
82395;BME280;72031;51.786;4.662;2024-02-14T03:31:32;101411.75;;;9.75;97.04
82395;BME280;72031;51.786;4.662;2024-02-14T03:33:57;101411.97;;;9.86;96.75
82395;BME280;72031;51.786;4.662;2024-02-14T03:36:23;101421.00;;;9.84;96.20
82395;BME280;72031;51.786;4.662;2024-02-14T03:38:49;101415.84;;;9.81;96.49
82395;BME280;72031;51.786;4.662;2024-02-14T03:41:15;101418.50;;;9.81;96.76
82395;BME280;72031;51.786;4.662;2024-02-14T03:43:40;101414.63;;;9.86;96.53
82395;BME280;72031;51.786;4.662;2024-02-14T03:46:06;101418.25;;;9.85;96.33
82395;BME280;72031;51.786;4.662;2024-02-14T03:48:31;101423.06;;;9.95;96.23
82395;BME280;72031;51.786;4.662;2024-02-14T03:50:57;101417.22;;;9.88;96.64
82395;BME280;72031;51.786;4.662;2024-02-14T03:53:23;101424.09;;;9.92;96.57
82395;BME280;72031;51.786;4.662;2024-02-14T03:55:48;101427.34;;;9.97;96.38
82395;BME280;72031;51.786;4.662;2024-02-14T03:58:15;101416.69;;;9.97;96.07
82395;BME280;72031;51.786;4.662;2024-02-14T04:00:43;101421.81;;;10.00;96.12
82395;BME280;72031;51.786;4.662;2024-02-14T04:03:12;101420.09;;;9.99;96.37
82395;BME280;72031;51.786;4.662;2024-02-14T04:05:38;101425.28;;;10.02;95.93
82395;BME280;72031;51.786;4.662;2024-02-14T04:08:04;101436.34;;;10.10;96.16
82395;BME280;72031;51.786;4.662;2024-02-14T04:10:29;101437.81;;;10.00;96.37
82395;BME280;72031;51.786;4.662;2024-02-14T04:12:55;101436.59;;;10.06;96.47
82395;BME280;72031;51.786;4.662;2024-02-14T04:15:20;101439.19;;;10.07;96.17
82395;BME280;72031;51.786;4.662;2024-02-14T04:17:46;101441.94;;;10.06;96.45
82395;BME280;72031;51.786;4.662;2024-02-14T04:20:11;101438.31;;;10.07;96.41
82395;BME280;72031;51.786;4.662;2024-02-14T04:22:37;101438.22;;;10.08;96.63
82395;BME280;72031;51.786;4.662;2024-02-14T04:25:02;101442.81;;;10.06;96.98
82395;BME280;72031;51.786;4.662;2024-02-14T04:27:28;101446.59;;;10.02;97.23
82395;BME280;72031;51.786;4.662;2024-02-14T04:29:53;101447.56;;;10.01;97.65
82395;BME280;72031;51.786;4.662;2024-02-14T04:32:19;101444.28;;;9.96;98.20
82395;BME280;72031;51.786;4.662;2024-02-14T04:34:45;101447.72;;;9.98;98.18
82395;BME280;72031;51.786;4.662;2024-02-14T04:37:10;101440.22;;;10.05;97.84
82395;BME280;72031;51.786;4.662;2024-02-14T04:39:39;101453.31;;;10.09;98.16
82395;BME280;72031;51.786;4.662;2024-02-14T04:42:04;101453.47;;;10.06;97.86
82395;BME280;72031;51.786;4.662;2024-02-14T04:44:31;101458.56;;;10.11;98.38
82395;BME280;72031;51.786;4.662;2024-02-14T04:47:00;101459.16;;;10.00;99.24
82395;BME280;72031;51.786;4.662;2024-02-14T04:49:25;101469.41;;;9.92;99.78
82395;BME280;72031;51.786;4.662;2024-02-14T04:51:51;101454.19;;;9.94;100.00
82395;BME280;72031;51.786;4.662;2024-02-14T04:54:18;101461.75;;;9.86;100.00
82395;BME280;72031;51.786;4.662;2024-02-14T04:56:43;101461.75;;;9.86;100.00
82395;BME280;72031;51.786;4.662;2024-02-14T04:59:10;101466.91;;;9.89;100.00
82395;BME280;72031;51.786;4.662;2024-02-14T05:01:36;101469.34;;;9.94;100.00
82395;BME280;72031;51.786;4.662;2024-02-14T05:04:01;101455.28;;;9.90;100.00
82395;BME280;72031;51.786;4.662;2024-02-14T05:06:28;101465.09;;;9.90;100.00
82395;BME280;72031;51.786;4.662;2024-02-14T05:08:54;101465.38;;;9.85;100.00
82395;BME280;72031;51.786;4.662;2024-02-14T05:11:19;101469.75;;;9.86;100.00
82395;BME280;72031;51.786;4.662;2024-02-14T05:13:45;101469.00;;;9.84;100.00
82395;BME280;72031;51.786;4.662;2024-02-14T05:16:11;101469.91;;;9.83;100.00
82395;BME280;72031;51.786;4.662;2024-02-14T05:18:38;101468.47;;;9.77;100.00
82395;BME280;72031;51.786;4.662;2024-02-14T05:21:07;101469.16;;;9.81;100.00
82395;BME280;72031;51.786;4.662;2024-02-14T05:23:34;101481.81;;;9.77;100.00
82395;BME280;72031;51.786;4.662;2024-02-14T05:26:00;101468.56;;;9.76;100.00
82395;BME280;72031;51.786;4.662;2024-02-14T05:28:27;101467.63;;;9.77;100.00
82395;BME280;72031;51.786;4.662;2024-02-14T05:30:54;101473.44;;;9.83;100.00
82395;BME280;72031;51.786;4.662;2024-02-14T05:33:19;101464.78;;;9.80;100.00
82395;BME280;72031;51.786;4.662;2024-02-14T05:35:51;101463.66;;;9.84;100.00
82395;BME280;72031;51.786;4.662;2024-02-14T05:38:16;101469.34;;;9.78;100.00
82395;BME280;72031;51.786;4.662;2024-02-14T05:40:48;101472.34;;;9.72;100.00
82395;BME280;72031;51.786;4.662;2024-02-14T05:43:14;101473.63;;;9.80;100.00
82395;BME280;72031;51.786;4.662;2024-02-14T05:45:39;101474.66;;;9.78;100.00
82395;BME280;72031;51.786;4.662;2024-02-14T05:48:05;101465.81;;;9.77;100.00
82395;BME280;72031;51.786;4.662;2024-02-14T05:50:31;101476.19;;;9.82;100.00
82395;BME280;72031;51.786;4.662;2024-02-14T05:52:57;101473.63;;;9.80;100.00
82395;BME280;72031;51.786;4.662;2024-02-14T05:55:23;101478.78;;;9.83;100.00
82395;BME280;72031;51.786;4.662;2024-02-14T05:57:50;101476.91;;;9.85;100.00
82395;BME280;72031;51.786;4.662;2024-02-14T06:00:17;101482.56;;;9.95;100.00
82395;BME280;72031;51.786;4.662;2024-02-14T06:02:44;101486.94;;;9.96;100.00
82395;BME280;72031;51.786;4.662;2024-02-14T06:05:10;101488.66;;;9.97;100.00
82395;BME280;72031;51.786;4.662;2024-02-14T06:07:39;101491.16;;;10.00;100.00
82395;BME280;72031;51.786;4.662;2024-02-14T06:10:06;101503.38;;;10.04;100.00
82395;BME280;72031;51.786;4.662;2024-02-14T06:12:32;101497.09;;;10.05;100.00
82395;BME280;72031;51.786;4.662;2024-02-14T06:14:58;101505.69;;;10.10;100.00
82395;BME280;72031;51.786;4.662;2024-02-14T06:17:23;101496.22;;;10.05;100.00
82395;BME280;72031;51.786;4.662;2024-02-14T06:19:49;101496.84;;;10.10;100.00
82395;BME280;72031;51.786;4.662;2024-02-14T06:22:14;101498.56;;;10.11;100.00
82395;BME280;72031;51.786;4.662;2024-02-14T06:24:39;101506.13;;;10.19;100.00
82395;BME280;72031;51.786;4.662;2024-02-14T06:27:06;101504.91;;;10.24;100.00
82395;BME280;72031;51.786;4.662;2024-02-14T06:29:32;101496.84;;;10.26;100.00
82395;BME280;72031;51.786;4.662;2024-02-14T06:31:57;101510.09;;;10.27;100.00
82395;BME280;72031;51.786;4.662;2024-02-14T06:34:23;101503.91;;;10.27;100.00
82395;BME280;72031;51.786;4.662;2024-02-14T06:36:48;101502.19;;;10.26;100.00
82395;BME280;72031;51.786;4.662;2024-02-14T06:39:14;101507.53;;;10.26;100.00
82395;BME280;72031;51.786;4.662;2024-02-14T06:41:40;101502.19;;;10.26;100.00
82395;BME280;72031;51.786;4.662;2024-02-14T06:44:05;101508.59;;;10.22;100.00
82395;BME280;72031;51.786;4.662;2024-02-14T06:46:31;101501.66;;;10.19;100.00
82395;BME280;72031;51.786;4.662;2024-02-14T06:48:57;101499.69;;;10.23;100.00
82395;BME280;72031;51.786;4.662;2024-02-14T06:51:22;101511.47;;;10.19;100.00
82395;BME280;72031;51.786;4.662;2024-02-14T06:53:49;101513.25;;;10.18;100.00
82395;BME280;72031;51.786;4.662;2024-02-14T06:56:15;101507.31;;;10.13;100.00
82395;BME280;72031;51.786;4.662;2024-02-14T06:58:40;101513.16;;;10.20;100.00
82395;BME280;72031;51.786;4.662;2024-02-14T07:01:06;101511.47;;;10.19;100.00
82395;BME280;72031;51.786;4.662;2024-02-14T07:03:31;101514.88;;;10.21;100.00
82395;BME280;72031;51.786;4.662;2024-02-14T07:05:57;101514.03;;;10.20;100.00
82395;BME280;72031;51.786;4.662;2024-02-14T07:08:22;101516.44;;;10.25;100.00
82395;BME280;72031;51.786;4.662;2024-02-14T07:10:50;101518.34;;;10.23;100.00
82395;BME280;72031;51.786;4.662;2024-02-14T07:13:16;101523.13;;;10.16;100.00
82395;BME280;72031;51.786;4.662;2024-02-14T07:15:42;101530.19;;;10.17;100.00
82395;BME280;72031;51.786;4.662;2024-02-14T07:18:08;101536.22;;;10.21;100.00
82395;BME280;72031;51.786;4.662;2024-02-14T07:20:35;101528.22;;;10.21;100.00
82395;BME280;72031;51.786;4.662;2024-02-14T07:23:00;101538.66;;;10.25;100.00
82395;BME280;72031;51.786;4.662;2024-02-14T07:25:26;101532.53;;;10.23;100.00
82395;BME280;72031;51.786;4.662;2024-02-14T07:27:51;101534.19;;;10.26;100.00
82395;BME280;72031;51.786;4.662;2024-02-14T07:30:17;101535.91;;;10.27;100.00
82395;BME280;72031;51.786;4.662;2024-02-14T07:32:44;101536.88;;;10.26;100.00
82395;BME280;72031;51.786;4.662;2024-02-14T07:35:10;101543.97;;;10.25;100.00
82395;BME280;72031;51.786;4.662;2024-02-14T07:37:36;101536.22;;;10.21;100.00
82395;BME280;72031;51.786;4.662;2024-02-14T07:40:02;101544.47;;;10.16;100.00
82395;BME280;72031;51.786;4.662;2024-02-14T07:42:28;101541.38;;;10.08;100.00
82395;BME280;72031;51.786;4.662;2024-02-14T07:44:53;101543.53;;;10.17;100.00
82395;BME280;72031;51.786;4.662;2024-02-14T07:47:21;101551.63;;;10.15;100.00
82395;BME280;72031;51.786;4.662;2024-02-14T07:49:47;101549.03;;;10.14;100.00
82395;BME280;72031;51.786;4.662;2024-02-14T07:52:13;101547.41;;;10.11;100.00
82395;BME280;72031;51.786;4.662;2024-02-14T07:54:38;101553.72;;;10.10;100.00
82395;BME280;72031;51.786;4.662;2024-02-14T07:57:04;101559.81;;;10.12;100.00
82395;BME280;72031;51.786;4.662;2024-02-14T07:59:29;101547.22;;;10.14;100.00
82395;BME280;72031;51.786;4.662;2024-02-14T08:01:55;101559.47;;;10.19;100.00
82395;BME280;72031;51.786;4.662;2024-02-14T08:04:21;101554.13;;;10.19;100.00
82395;BME280;72031;51.786;4.662;2024-02-14T08:06:47;101560.22;;;10.21;100.00
82395;BME280;72031;51.786;4.662;2024-02-14T08:09:14;101555.69;;;10.23;100.00
82395;BME280;72031;51.786;4.662;2024-02-14T08:11:40;101557.75;;;10.18;100.00
82395;BME280;72031;51.786;4.662;2024-02-14T08:14:06;101557.75;;;10.18;100.00
82395;BME280;72031;51.786;4.662;2024-02-14T08:16:31;101573.25;;;10.27;100.00
82395;BME280;72031;51.786;4.662;2024-02-14T08:18:57;101565.56;;;10.21;100.00
82395;BME280;72031;51.786;4.662;2024-02-14T08:21:25;101564.97;;;10.31;100.00
82395;BME280;72031;51.786;4.662;2024-02-14T08:23:52;101562.41;;;10.30;100.00
82395;BME280;72031;51.786;4.662;2024-02-14T08:26:18;101562.22;;;10.33;100.00
82395;BME280;72031;51.786;4.662;2024-02-14T08:28:43;101570.94;;;10.36;100.00
82395;BME280;72031;51.786;4.662;2024-02-14T08:31:12;101566.44;;;10.37;100.00
82395;BME280;72031;51.786;4.662;2024-02-14T08:33:37;101560.78;;;10.43;100.00
82395;BME280;72031;51.786;4.662;2024-02-14T08:36:04;101571.03;;;10.35;100.00
82395;BME280;72031;51.786;4.662;2024-02-14T08:38:30;101570.75;;;10.39;100.00
82395;BME280;72031;51.786;4.662;2024-02-14T08:40:56;101561.25;;;10.50;100.00
82395;BME280;72031;51.786;4.662;2024-02-14T08:43:22;101566.34;;;10.54;100.00
82395;BME280;72031;51.786;4.662;2024-02-14T08:45:49;101570.47;;;10.60;100.00
82395;BME280;72031;51.786;4.662;2024-02-14T08:48:17;101572.84;;;10.64;100.00
82395;BME280;72031;51.786;4.662;2024-02-14T08:50:42;101569.50;;;10.61;100.00
82395;BME280;72031;51.786;4.662;2024-02-14T08:53:08;101583.88;;;10.58;100.00
82395;BME280;72031;51.786;4.662;2024-02-14T08:55:35;101582.00;;;10.60;100.00
82395;BME280;72031;51.786;4.662;2024-02-14T08:58:01;101595.25;;;10.62;100.00
82395;BME280;72031;51.786;4.662;2024-02-14T09:00:27;101582.56;;;10.65;100.00
82395;BME280;72031;51.786;4.662;2024-02-14T09:02:52;101595.91;;;10.65;100.00
82395;BME280;72031;51.786;4.662;2024-02-14T09:05:18;101590.59;;;10.65;100.00
82395;BME280;72031;51.786;4.662;2024-02-14T09:07:44;101596.88;;;10.64;100.00
82395;BME280;72031;51.786;4.662;2024-02-14T09:10:11;101603.50;;;10.73;100.00
82395;BME280;72031;51.786;4.662;2024-02-14T09:12:38;101598.16;;;10.73;100.00
82395;BME280;72031;51.786;4.662;2024-02-14T09:15:05;101591.53;;;10.64;100.00
82395;BME280;72031;51.786;4.662;2024-02-14T09:17:30;101597.47;;;10.69;100.00
82395;BME280;72031;51.786;4.662;2024-02-14T09:19:56;101590.44;;;10.68;100.00
82395;BME280;72031;51.786;4.662;2024-02-14T09:22:22;101588.53;;;10.70;100.00
82395;BME280;72031;51.786;4.662;2024-02-14T09:24:48;101593.50;;;10.77;100.00
82395;BME280;72031;51.786;4.662;2024-02-14T09:27:14;101597.03;;;10.77;100.00
82395;BME280;72031;51.786;4.662;2024-02-14T09:29:39;101608.28;;;10.82;100.00
82395;BME280;72031;51.786;4.662;2024-02-14T09:32:05;101597.09;;;10.76;100.00
82395;BME280;72031;51.786;4.662;2024-02-14T09:34:32;101601.94;;;10.85;100.00
82395;BME280;72031;51.786;4.662;2024-02-14T09:36:57;101612.97;;;10.79;100.00
82395;BME280;72031;51.786;4.662;2024-02-14T09:39:24;101604.59;;;10.85;100.00
82395;BME280;72031;51.786;4.662;2024-02-14T09:41:55;101607.94;;;10.88;100.00
82395;BME280;72031;51.786;4.662;2024-02-14T09:44:27;101604.41;;;10.88;100.00
82395;BME280;72031;51.786;4.662;2024-02-14T09:46:55;101603.09;;;10.95;100.00
82395;BME280;72031;51.786;4.662;2024-02-14T09:49:23;101599.47;;;10.96;100.00
82395;BME280;72031;51.786;4.662;2024-02-14T09:51:52;101600.13;;;10.99;100.00
82395;BME280;72031;51.786;4.662;2024-02-14T09:54:17;101601.69;;;11.04;100.00
82395;BME280;72031;51.786;4.662;2024-02-14T09:56:49;101604.06;;;11.08;100.00
82395;BME280;72031;51.786;4.662;2024-02-14T09:59:16;101600.63;;;11.06;100.00
82395;BME280;72031;51.786;4.662;2024-02-14T10:01:41;101599.13;;;11.02;100.00
82395;BME280;72031;51.786;4.662;2024-02-14T10:04:08;101597.66;;;10.96;100.00
82395;BME280;72031;51.786;4.662;2024-02-14T10:06:35;101602.91;;;10.98;100.00
82395;BME280;72031;51.786;4.662;2024-02-14T10:09:02;101604.63;;;10.99;100.00
82395;BME280;72031;51.786;4.662;2024-02-14T10:11:27;101611.41;;;11.05;100.00
82395;BME280;72031;51.786;4.662;2024-02-14T10:13:53;101611.41;;;11.05;100.00
82395;BME280;72031;51.786;4.662;2024-02-14T10:16:22;101611.13;;;11.09;100.00
82395;BME280;72031;51.786;4.662;2024-02-14T10:18:48;101606.75;;;11.08;100.00
82395;BME280;72031;51.786;4.662;2024-02-14T10:21:16;101612.88;;;11.10;100.00
82395;BME280;72031;51.786;4.662;2024-02-14T10:23:43;101612.19;;;11.07;100.00
82395;BME280;72031;51.786;4.662;2024-02-14T10:26:10;101616.66;;;11.06;100.00
82395;BME280;72031;51.786;4.662;2024-02-14T10:28:36;101621.75;;;11.11;100.00
82395;BME280;72031;51.786;4.662;2024-02-14T10:31:21;101621.47;;;11.15;100.00
82395;BME280;72031;51.786;4.662;2024-02-14T10:33:46;101618.88;;;11.14;100.00
82395;BME280;72031;51.786;4.662;2024-02-14T10:36:12;101620.41;;;11.18;100.00
82395;BME280;72031;51.786;4.662;2024-02-14T10:38:39;101615.00;;;11.19;100.00
82395;BME280;72031;51.786;4.662;2024-02-14T10:41:05;101619.00;;;11.26;100.00
82395;BME280;72031;51.786;4.662;2024-02-14T10:43:30;101616.81;;;11.33;100.00
82395;BME280;72031;51.786;4.662;2024-02-14T10:46:00;101617.13;;;11.28;100.00
82395;BME280;72031;51.786;4.662;2024-02-14T10:48:31;101632.00;;;11.33;100.00
82395;BME280;72031;51.786;4.662;2024-02-14T10:51:02;101625.31;;;11.40;100.00
82395;BME280;72031;51.786;4.662;2024-02-14T10:53:33;101618.06;;;11.42;100.00
82395;BME280;72031;51.786;4.662;2024-02-14T10:56:02;101611.00;;;11.41;100.00
82395;BME280;72031;51.786;4.662;2024-02-14T10:58:29;101613.13;;;11.50;100.00
82395;BME280;72031;51.786;4.662;2024-02-14T11:00:57;101618.66;;;11.47;100.00
82395;BME280;72031;51.786;4.662;2024-02-14T11:03:25;101614.44;;;11.43;100.00
82395;BME280;72031;51.786;4.662;2024-02-14T11:05:53;101614.44;;;11.43;100.00
82395;BME280;72031;51.786;4.662;2024-02-14T11:08:28;101609.09;;;11.43;100.00
82395;BME280;72031;51.786;4.662;2024-02-14T11:10:55;101599.94;;;11.47;100.00
82395;BME280;72031;51.786;4.662;2024-02-14T11:13:30;101598.72;;;11.52;100.00
82395;BME280;72031;51.786;4.662;2024-02-14T11:15:57;101604.72;;;11.56;100.00
82395;BME280;72031;51.786;4.662;2024-02-14T11:18:30;101597.19;;;11.63;100.00
82395;BME280;72031;51.786;4.662;2024-02-14T11:20:56;101599.00;;;11.62;100.00
82395;BME280;72031;51.786;4.662;2024-02-14T11:23:25;101609.88;;;11.59;100.00
82395;BME280;72031;51.786;4.662;2024-02-14T11:26:05;101603.56;;;11.60;100.00
82395;BME280;72031;51.786;4.662;2024-02-14T11:28:37;101599.59;;;11.53;100.00
82395;BME280;72031;51.786;4.662;2024-02-14T11:31:07;101600.13;;;11.58;100.00
82395;BME280;72031;51.786;4.662;2024-02-14T11:33:35;101597.09;;;11.50;100.00
82395;BME280;72031;51.786;4.662;2024-02-14T11:36:08;101593.06;;;11.57;100.00
82395;BME280;72031;51.786;4.662;2024-02-14T11:38:36;101589.34;;;11.60;100.00
82395;BME280;72031;51.786;4.662;2024-02-14T11:41:02;101593.66;;;11.62;100.00
82395;BME280;72031;51.786;4.662;2024-02-14T11:43:29;101593.47;;;11.65;100.00
82395;BME280;72031;51.786;4.662;2024-02-14T11:45:54;101588.31;;;11.62;100.00
82395;BME280;72031;51.786;4.662;2024-02-14T11:48:21;101589.66;;;11.69;100.00
82395;BME280;72031;51.786;4.662;2024-02-14T11:50:48;101588.88;;;11.67;100.00
82395;BME280;72031;51.786;4.662;2024-02-14T11:53:15;101587.91;;;11.68;100.00
82395;BME280;72031;51.786;4.662;2024-02-14T11:55:45;101592.72;;;11.63;100.00
82395;BME280;72031;51.786;4.662;2024-02-14T11:58:15;101592.13;;;11.58;100.00
82395;BME280;72031;51.786;4.662;2024-02-14T12:00:42;101593.94;;;11.57;100.00
82395;BME280;72031;51.786;4.662;2024-02-14T12:03:12;101583.81;;;11.63;100.00
82395;BME280;72031;51.786;4.662;2024-02-14T12:05:38;101582.97;;;11.62;100.00
82395;BME280;72031;51.786;4.662;2024-02-14T12:08:07;101580.00;;;11.67;100.00
82395;BME280;72031;51.786;4.662;2024-02-14T12:10:34;101586.31;;;11.66;100.00
82395;BME280;72031;51.786;4.662;2024-02-14T12:13:08;101577.63;;;11.62;100.00
82395;BME280;72031;51.786;4.662;2024-02-14T12:15:41;101584.69;;;11.63;100.00
82395;BME280;72031;51.786;4.662;2024-02-14T12:18:09;101587.47;;;11.62;100.00
82395;BME280;72031;51.786;4.662;2024-02-14T12:20:35;101589.06;;;11.64;100.00
82395;BME280;72031;51.786;4.662;2024-02-14T12:23:02;101592.41;;;11.68;100.00
82395;BME280;72031;51.786;4.662;2024-02-14T12:25:29;101587.25;;;11.65;100.00
82395;BME280;72031;51.786;4.662;2024-02-14T12:27:56;101583.44;;;11.69;100.00
82395;BME280;72031;51.786;4.662;2024-02-14T12:30:22;101582.78;;;11.65;100.00
82395;BME280;72031;51.786;4.662;2024-02-14T12:33:00;101584.47;;;11.66;100.00
82395;BME280;72031;51.786;4.662;2024-02-14T12:35:34;101584.69;;;11.63;100.00
82395;BME280;72031;51.786;4.662;2024-02-14T12:38:05;101575.13;;;11.73;100.00
82395;BME280;72031;51.786;4.662;2024-02-14T12:40:35;101580.69;;;11.70;100.00
82395;BME280;72031;51.786;4.662;2024-02-14T12:43:01;101579.25;;;11.79;100.00
82395;BME280;72031;51.786;4.662;2024-02-14T12:45:27;101576.84;;;11.74;100.00